Time;durP1;ratioP1;P1;durP2;ratioP2;P2;SDS_P1;SDS_P2;PMS_P1;PMS_P2;Temp;Humidity;BMP_temperature;BMP_pressure;BME280_temperature;BME280_humidity;BME280_pressure;Samples;Min_cycle;Max_cycle;Signal;HPM_P1;HPM_P2
2023/03/10 00:36:18;;;;;;;21.90;13.02;;;;;;;;;;4967044;24;20430;-91
2023/03/10 00:42:53;;;;;;;24.52;13.43;;;;;;;;;;4734837;30;20091;-91
2023/03/10 01:42:11;;;;;;;18.35;8.50;;;2.10;99.90;;;;;;4801520;24;20063;-92
2023/03/10 02:37:58;;;;;;;14.73;8.10;;;;;;;;;;4773347;30;20529;-89
2023/03/10 02:47:27;;;;;;;13.48;8.35;;;;;;;;;;4773291;30;20054;-90
2023/03/10 02:50:07;;;;;;;13.93;8.88;;;;;;;;;;4743686;30;20043;-90
2023/03/10 02:52:55;;;;;;;14.35;9.57;;;;;;;;;;4757986;30;20067;-90
2023/03/10 02:59:03;;;;;;;13.20;8.40;;;;;;;;;;4756925;30;20067;-91
2023/03/10 03:01:32;;;;;;;15.52;9.27;;;;;;;;;;4741578;30;20051;-90
2023/03/10 03:04:16;;;;;;;;;;;;;;;;;;;;;
2023/03/10 03:06:49;;;;;;;16.38;9.38;;;;;;;;;;4757116;30;20138;-90
2023/03/10 03:13:02;;;;;;;11.32;6.43;;;;;;;;;;4761093;30;20052;-90
2023/03/10 03:15:34;;;;;;;13.95;8.15;;;;;;;;;;4743092;30;20149;-91
2023/03/10 03:18:33;;;;;;;17.02;10.57;;;;;;;;;;4763617;24;20060;-90
2023/03/10 03:26:39;;;;;;;21.20;11.20;;;;;;;;;;3975225;24;20126;-90
2023/03/10 03:29:27;;;;;;;16.25;10.18;;;;;;;;;;4926228;24;20472;-90
2023/03/10 03:36:08;;;;;;;18.52;11.80;;;;;;;;;;4773265;30;20066;-91
2023/03/10 03:39:05;;;;;;;18.38;10.32;;;;;;;;;;4743324;30;20067;-90
2023/03/10 03:41:56;;;;;;;21.20;11.13;;;;;;;;;;4742438;30;20176;-90
2023/03/10 03:44:22;;;;;;;19.27;11.75;;;;;;;;;;4742925;30;20144;-90
2023/03/10 03:46:51;;;;;;;21.17;12.52;;;;;;;;;;4742471;30;20054;-90
2023/03/10 03:49:46;;;;;;;17.00;11.85;;;;;;;;;;4742112;30;20132;-90
2023/03/10 03:52:12;;;;;;;;;;;1.60;99.90;;;;;;4738262;30;20045;-90
2023/03/10 03:54:46;;;;;;;18.95;11.57;;;;;;;;;;4723758;30;20016;-89
2023/03/10 03:57:13;;;;;;;18.75;11.75;;;;;;;;;;4723553;30;20827;-89
2023/03/10 03:59:39;;;;;;;19.30;10.88;;;;;;;;;;4737330;30;20052;-89
2023/03/10 04:02:07;;;;;;;24.70;12.88;;;;;;;;;;4723067;30;20052;-89
2023/03/10 04:04:33;;;;;;;21.75;11.25;;;;;;;;;;4723675;30;20056;-89
2023/03/10 04:07:00;;;;;;;22.25;11.80;;;;;;;;;;4722800;30;20052;-90
2023/03/10 04:09:29;;;;;;;21.42;13.15;;;;;;;;;;4723045;30;20645;-89
2023/03/10 04:11:58;;;;;;;18.25;11.85;;;;;;;;;;4723480;30;20095;-89
2023/03/10 04:14:30;;;;;;;22.42;12.27;;;;;;;;;;4737194;30;20556;-90
2023/03/10 04:16:59;;;;;;;21.35;12.45;;;;;;;;;;4737712;30;20056;-89
2023/03/10 04:19:25;;;;;;;19.13;11.40;;;;;;;;;;4754160;30;20057;-90
2023/03/10 04:21:51;;;;;;;18.92;11.77;;;;;;;;;;4724857;30;20056;-90
2023/03/10 04:24:20;;;;;;;18.67;11.82;;;;;;;;;;4727161;30;20062;-90
2023/03/10 04:26:46;;;;;;;20.83;12.77;;;;;;;;;;4755269;30;20146;-87
2023/03/10 04:29:13;;;;;;;18.42;12.10;;;;;;;;;;4754682;30;20051;-87
2023/03/10 04:31:39;;;;;;;26.63;11.90;;;;;;;;;;4769852;30;20062;-87
2023/03/10 04:34:05;;;;;;;22.60;12.70;;;;;;;;;;4754652;30;20052;-86
2023/03/10 04:36:31;;;;;;;19.48;10.98;;;;;;;;;;4755171;30;20083;-86
2023/03/10 04:38:57;;;;;;;20.83;12.38;;;;;;;;;;4754578;30;20067;-87
2023/03/10 04:41:24;;;;;;;26.35;11.88;;;;;;;;;;4755023;30;20502;-87
2023/03/10 04:43:50;;;;;;;21.80;11.48;;;;;;;;;;4769272;30;20060;-86
2023/03/10 04:46:16;;;;;;;21.17;12.65;;;;;;;;;;4755000;30;20056;-87
2023/03/10 04:48:42;;;;;;;22.25;13.02;;;;;;;;;;4754853;30;20146;-87
2023/03/10 04:51:10;;;;;;;20.88;13.10;;;;;;;;;;4754868;30;20398;-87
2023/03/10 04:53:36;;;;;;;27.70;14.63;;;;;;;;;;4753823;30;20083;-87
2023/03/10 04:56:05;;;;;;;23.05;13.00;;;;;;;;;;4755017;30;20154;-87
2023/03/10 04:58:31;;;;;;;30.05;15.68;;;;;;;;;;4754883;30;20581;-87
2023/03/10 05:00:57;;;;;;;27.20;15.73;;;;;;;;;;4769996;30;20095;-87
2023/03/10 05:03:23;;;;;;;34.78;16.83;;;;;;;;;;4754666;30;20059;-87
2023/03/10 05:05:49;;;;;;;35.50;16.73;;;;;;;;;;4754066;30;20403;-87
2023/03/10 05:08:15;;;;;;;34.72;19.23;;;;;;;;;;4740264;30;20120;-87
2023/03/10 05:10:46;;;;;;;33.88;17.20;;;;;;;;;;4740218;30;20048;-87
2023/03/10 05:13:13;;;;;;;35.95;18.05;;;;;;;;;;4755063;30;20146;-87
2023/03/10 05:15:42;;;;;;;37.30;18.50;;;;;;;;;;4754156;30;20501;-87
2023/03/10 05:18:09;;;;;;;42.35;18.90;;;;;;;;;;4754322;30;20418;-87
2023/03/10 05:20:36;;;;;;;41.63;21.00;;;;;;;;;;4754671;30;20060;-87
2023/03/10 05:23:02;;;;;;;46.60;21.17;;;;;;;;;;4753920;30;20056;-87
2023/03/10 05:25:28;;;;;;;44.13;22.63;;;;;;;;;;4740341;30;20119;-89
2023/03/10 05:27:54;;;;;;;41.50;22.25;;;;;;;;;;4754446;30;20062;-89
2023/03/10 05:30:21;;;;;;;41.78;23.13;;;;;;;;;;4754313;30;20060;-89
2023/03/10 05:32:47;;;;;;;44.40;21.05;;;;;;;;;;4754865;30;20056;-89
2023/03/10 05:35:13;;;;;;;45.60;23.13;;;;;;;;;;4754586;30;20055;-88
2023/03/10 05:37:40;;;;;;;42.95;22.27;;;;;;;;;;4754666;30;20047;-89
2023/03/10 05:40:12;;;;;;;44.78;22.77;;;;;;;;;;4754467;30;20162;-89
2023/03/10 05:42:38;;;;;;;42.20;21.92;;;;;;;;;;4754109;30;20139;-89
2023/03/10 05:45:05;;;;;;;42.15;22.35;;;;;;;;;;4741902;30;20064;-89
2023/03/10 05:47:32;;;;;;;38.53;20.25;;;;;;;;;;4754836;30;20058;-88
2023/03/10 05:50:01;;;;;;;39.63;21.10;;;;;;;;;;4740027;30;20067;-88
2023/03/10 05:52:27;;;;;;;34.63;19.33;;;;;;;;;;4740058;30;20048;-88
2023/03/10 05:54:53;;;;;;;37.83;20.20;;;;;;;;;;4754192;30;20144;-88
2023/03/10 05:57:19;;;;;;;36.75;19.08;;;;;;;;;;4754198;30;20105;-89
2023/03/10 05:59:46;;;;;;;34.20;18.30;;;;;;;;;;4753883;30;20483;-89
2023/03/10 06:02:12;;;;;;;29.83;16.05;;;;;;;;;;4754157;30;20054;-89
2023/03/10 06:04:38;;;;;;;33.95;18.95;;;;;;;;;;4755407;30;20066;-88
2023/03/10 06:07:04;;;;;;;35.40;17.60;;;;;;;;;;4758068;30;20055;-89
2023/03/10 06:09:31;;;;;;;29.60;15.07;;;;;;;;;;4757480;30;20075;-89
2023/03/10 06:11:58;;;;;;;28.27;15.60;;;;;;;;;;4773078;30;20117;-88
2023/03/10 06:14:24;;;;;;;26.20;15.10;;;;;;;;;;4756853;30;20067;-88
2023/03/10 06:16:54;;;;;;;33.20;16.23;;;;;;;;;;4772070;30;20070;-88
2023/03/10 06:19:21;;;;;;;22.80;13.45;;;;;;;;;;4757491;30;20142;-88
2023/03/10 06:21:48;;;;;;;21.55;13.23;;;;;;;;;;4773311;30;20048;-87
2023/03/10 06:24:14;;;;;;;22.67;13.57;;;;;;;;;;4773240;30;20414;-87
2023/03/10 06:26:40;;;;;;;24.10;13.98;;;;;;;;;;4772811;30;20056;-87
2023/03/10 06:29:06;;;;;;;21.17;12.68;;;;;;;;;;4772297;30;20526;-86
2023/03/10 06:31:32;;;;;;;20.23;12.60;;;;;;;;;;4771484;30;20067;-86
2023/03/10 06:33:59;;;;;;;25.55;12.27;;;;;;;;;;4757256;30;20470;-86
2023/03/10 06:36:26;;;;;;;22.15;13.15;;;;;;;;;;4756518;30;20066;-85
2023/03/10 06:38:52;;;;;;;25.75;13.25;;;;;;;;;;4771391;30;20530;-86
2023/03/10 06:41:19;;;;;;;23.95;12.50;;;;;;;;;;4756352;30;20063;-86
2023/03/10 06:43:46;;;;;;;21.27;12.38;;;;;;;;;;4756465;30;20116;-87
2023/03/10 06:46:12;;;;;;;24.30;13.98;;;;;;;;;;4756647;30;20055;-87
2023/03/10 06:48:38;;;;;;;22.02;12.00;;;;;;;;;;4756499;30;20056;-87
2023/03/10 06:51:06;;;;;;;25.25;13.70;;;;;;;;;;4756887;30;20091;-86
2023/03/10 06:53:32;;;;;;;26.25;14.73;;;;;;;;;;4771755;30;20139;-86
2023/03/10 06:56:11;;;;;;;28.95;14.48;;;;;;;;;;4756800;30;20126;-87
2023/03/10 06:58:37;;;;;;;25.00;13.77;;;;;;;;;;4756556;30;20113;-86
2023/03/10 07:01:04;;;;;;;25.00;13.07;;;;;;;;;;4772978;30;20055;-85
2023/03/10 07:03:30;;;;;;;26.77;14.50;;;;;;;;;;4741772;30;20568;-86
2023/03/10 07:05:59;;;;;;;23.90;14.73;;;;;;;;;;4756766;30;20055;-87
2023/03/10 07:08:26;;;;;;;26.63;14.40;;;;;;;;;;4742687;30;20055;-85
2023/03/10 07:10:52;;;;;;;26.55;12.80;;;;;;;;;;4772901;30;20059;-87
2023/03/10 07:13:20;;;;;;;25.40;14.05;;;;;;;;;;4756702;30;20502;-85
2023/03/10 07:15:47;;;;;;;27.00;14.48;;;;;;;;;;4772238;30;20059;-85
2023/03/10 07:18:13;;;;;;;24.85;13.93;;;;;;;;;;4772774;30;20063;-86
2023/03/10 07:20:40;;;;;;;27.55;15.30;;;;;;;;;;4756697;30;20059;-86
2023/03/10 07:23:06;;;;;;;25.35;12.80;;;;;;;;;;4771604;30;20051;-86
2023/03/10 07:25:36;;;;;;;26.13;13.68;;;;;;;;;;4755934;30;20479;-86
2023/03/10 07:28:03;;;;;;;23.92;13.63;;;;;;;;;;4756126;30;20052;-86
2023/03/10 07:30:32;;;;;;;25.52;13.52;;;;;;;;;;4754942;30;20071;-86
2023/03/10 07:32:58;;;;;;;20.98;12.13;;;;;;;;;;4755212;30;20104;-86
2023/03/10 07:35:24;;;;;;;22.27;11.38;;;;;;;;;;4755262;30;20052;-86
2023/03/10 07:37:50;;;;;;;19.50;10.85;;;;;;;;;;4755538;30;20657;-87
2023/03/10 07:40:16;;;;;;;24.00;12.60;;;;;;;;;;4741086;30;20403;-88
2023/03/10 07:42:43;;;;;;;19.88;11.95;;;;;;;;;;4755727;30;20113;-87
2023/03/10 07:45:09;;;;;;;23.80;13.43;;;;;;;;;;4755421;30;20055;-88
2023/03/10 07:47:36;;;;;;;20.60;12.38;;;;;;;;;;4755808;30;20050;-88
2023/03/10 07:50:02;;;;;;;23.10;13.02;;;;;;;;;;4755383;30;20063;-87
2023/03/10 07:52:28;;;;;;;22.08;12.20;;;;;;;;;;4755221;30;20058;-87
2023/03/10 07:54:54;;;;;;;23.63;13.65;;;;;;;;;;4754847;30;20060;-87
2023/03/10 07:57:21;;;;;;;22.85;14.50;;;;;;;;;;4755047;30;20130;-87
2023/03/10 07:59:47;;;;;;;27.42;13.68;;;;;;;;;;4754570;30;20051;-87
2023/03/10 08:02:14;;;;;;;21.17;12.18;;;;;;;;;;4770988;30;20077;-86
2023/03/10 08:04:40;;;;;;;25.45;14.32;;;;;;;;;;4754721;30;20047;-86
2023/03/10 08:07:06;;;;;;;20.05;12.50;;;;;;;;;;4754953;30;20051;-87
2023/03/10 08:09:32;;;;;;;28.25;14.88;;;;;;;;;;4754771;30;20476;-87
2023/03/10 08:12:02;;;;;;;24.08;13.18;;;;;;;;;;4755341;30;20048;-84
2023/03/10 08:14:29;;;;;;;29.15;14.27;;;;;;;;;;4754894;30;20052;-85
2023/03/10 08:16:55;;;;;;;24.08;12.95;;;;;;;;;;4754662;30;20063;-85
2023/03/10 08:19:22;;;;;;;25.77;13.80;;;;;;;;;;4739982;30;20056;-85
2023/03/10 08:21:48;;;;;;;20.90;11.15;;;;;;;;;;4754879;30;20068;-86
2023/03/10 08:24:14;;;;;;;24.52;12.13;;;;;;;;;;4754573;30;20098;-86
2023/03/10 08:26:40;;;;;;;26.98;12.93;;;;;;;;;;4754817;30;20066;-85
2023/03/10 08:29:06;;;;;;;24.52;13.88;;;;;;;;;;4754760;30;20105;-86
2023/03/10 08:31:33;;;;;;;23.63;12.25;;;;;;;;;;4754659;30;20529;-85
2023/03/10 08:33:59;;;;;;;27.00;13.80;;;;;;;;;;4755101;30;20052;-86
2023/03/10 08:36:27;;;;;;;24.05;12.73;;;;;;;;;;4754796;30;20068;-87
2023/03/10 08:38:54;;;;;;;24.08;14.38;;;;;;;;;;4754662;30;20146;-86
2023/03/10 08:41:24;;;;;;;25.27;12.65;;;;;;;;;;4754269;30;20056;-88
2023/03/10 08:43:51;;;;;;;22.77;13.45;;;;;;;;;;4754370;30;20091;-87
2023/03/10 08:46:18;;;;;;;26.50;13.80;;;;;;;;;;4769068;30;20062;-88
2023/03/10 08:48:44;;;;;;;23.65;14.70;;;;;;;;;;4754212;30;20517;-88
2023/03/10 08:51:11;;;;;;;29.90;14.48;;;;;;;;;;4740181;30;20451;-89
2023/03/10 08:53:37;;;;;;;25.60;14.13;;;;;;;;;;4754313;30;20059;-89
2023/03/10 08:56:04;;;;;;;22.80;12.68;;;;;;;;;;4739584;30;20510;-90
2023/03/10 08:58:30;;;;;;;23.95;13.20;;;;;;;;;;4754525;30;20066;-89
2023/03/10 09:00:57;;;;;;;24.10;13.77;;;;;;;;;;4754037;30;20481;-88
2023/03/10 09:03:23;;;;;;;31.25;15.07;;;;;;;;;;4754061;30;20055;-89
2023/03/10 09:05:49;;;;;;;25.95;13.95;;;;;;;;;;4754299;30;20142;-87
2023/03/10 09:08:15;;;;;;;24.45;13.32;;;;;;;;;;4754150;30;20063;-87
2023/03/10 09:10:42;;;;;;;24.25;13.80;;;;;;;;;;4754588;30;20087;-89
2023/03/10 09:13:08;;;;;;;26.27;15.35;;;;;;;;;;4754328;30;20059;-90
2023/03/10 09:15:39;;;;;;;29.05;15.75;;;;;;;;;;4755060;30;20052;-90
2023/03/10 09:18:06;;;;;;;24.33;15.80;;;;;;;;;;4755462;30;20059;-90
2023/03/10 09:20:32;;;;;;;24.40;13.00;;;;;;;;;;4754310;30;20099;-89
2023/03/10 09:22:58;;;;;;;25.25;14.55;;;;;;;;;;4739752;30;20421;-89
2023/03/10 09:25:24;;;;;;;24.63;14.70;;;;;;;;;;4739563;30;20068;-90
2023/03/10 09:27:50;;;;;;;27.08;14.73;;;;;;;;;;4740713;30;20071;-91
2023/03/10 09:30:16;;;;;;;24.50;14.48;;;;;;;;;;4754014;30;20156;-90
2023/03/10 09:32:43;;;;;;;23.17;12.93;;;;;;;;;;4754026;30;20048;-88
2023/03/10 09:35:10;;;;;;;21.45;13.52;;;;;;;;;;4753737;30;20051;-88
2023/03/10 09:37:36;;;;;;;20.67;12.80;;;;;;;;;;4754037;30;20060;-90
2023/03/10 09:40:04;;;;;;;21.98;12.85;;;;;;;;;;4755416;30;20051;-87
2023/03/10 09:42:39;;;;;;;21.95;12.50;;;;;;;;;;4758419;30;20060;-91
2023/03/10 09:45:10;;;;;;;23.50;12.35;;;;;;;;;;4758044;30;20457;-90
2023/03/10 09:47:45;;;;;;;19.95;9.88;;;;;;;;;;4757471;30;20099;-89
2023/03/10 09:50:23;;;;;;;20.75;12.27;;;;;;;;;;4757462;30;20064;-90
2023/03/10 10:00:00;;;;;;;22.75;12.88;;;;;;;;;;4777607;30;20074;-91
2023/03/10 10:02:31;;;;;;;23.50;13.57;;;;;;;;;;4730239;30;20056;-90
2023/03/10 10:05:11;;;;;;;24.25;13.00;;;;;;;;;;4758868;30;20406;-91
2023/03/10 10:07:43;;;;;;;22.15;11.93;;;;;;;;;;4758331;30;20051;-90
2023/03/10 10:10:17;;;;;;;20.38;10.80;;;;;;;;;;4758700;30;20055;-90
2023/03/10 10:12:54;;;;;;;23.05;13.23;;;;;;;;;;4758988;30;20135;-90
2023/03/10 10:15:43;;;;;;;21.05;12.07;;;;;;;;;;4757848;30;20056;-89
2023/03/10 10:18:45;;;;;;;28.48;13.00;;;;;;;;;;4759202;30;20075;-91
2023/03/10 10:21:24;;;;;;;24.23;13.65;;;;;;;;;;4774622;30;20066;-92
2023/03/10 10:23:51;;;;;;;26.42;14.77;;;;;;;;;;4758461;30;20059;-89
2023/03/10 10:26:27;;;;;;;24.80;14.52;;;;;;;;;;4758061;30;20147;-87
2023/03/10 10:29:03;;;;;;;23.20;12.98;;;;;;;;;;4758012;30;20142;-87
2023/03/10 10:31:49;;;;;;;27.27;15.02;;;;;;;;;;4758404;30;20059;-90
2023/03/10 10:34:20;;;;;;;31.58;16.33;;;;;;;;;;4756532;30;20433;-88
2023/03/10 10:36:50;;;;;;;25.17;13.05;;;;;;;;;;4758148;30;20071;-88
2023/03/10 10:39:32;;;;;;;27.25;15.38;;;;;;;;;;4757917;30;20051;-89
2023/03/10 10:42:13;;;;;;;27.35;15.05;;;;;;;;;;4758240;30;20478;-88
2023/03/10 10:44:43;;;;;;;27.20;13.40;;;;;;;;;;4772642;30;20083;-88
2023/03/10 10:47:28;;;;;;;22.95;14.07;;;;;;;;;;4772581;30;20059;-89
2023/03/10 10:49:55;;;;;;;29.45;15.55;;;;;;;;;;4757704;30;20138;-87
2023/03/10 10:52:23;;;;;;;31.00;15.85;;;;;;;;;;4756418;30;20142;-86
2023/03/10 10:54:53;;;;;;;24.73;13.40;;;;;;;;;;4757343;30;20056;-87
2023/03/10 10:57:31;;;;;;;27.25;14.25;;;;;;;;;;4757528;30;20068;-86
2023/03/10 11:00:24;;;;;;;32.28;13.68;;;;;;;;;;4757243;30;20063;-87
2023/03/10 11:02:50;;;;;;;28.30;13.60;;;;;;;;;;4757117;30;20114;-87
2023/03/10 11:05:28;;;;;;;22.33;12.95;;;;;;;;;;4756767;30;20063;-87
2023/03/10 11:07:54;;;;;;;24.80;14.38;;;;;;;;;;4756826;30;20055;-88
2023/03/10 11:10:26;;;;;;;22.13;12.60;;;;;;;;;;4758077;30;20064;-87
2023/03/10 11:13:06;;;;;;;28.38;12.50;;;;;;;;;;4757243;30;20052;-89
2023/03/10 11:15:34;;;;;;;24.98;13.82;;;;;;;;;;4758076;30;20160;-89
2023/03/10 11:18:08;;;;;;;24.75;13.98;;;;;;;;;;4756969;30;20139;-92
2023/03/10 11:20:50;;;;;;;28.35;14.38;;;;;;;;;;4756956;30;20418;-90
2023/03/10 11:23:17;;;;;;;23.33;12.68;;;;;;;;;;4774389;30;20052;-90
2023/03/10 11:25:56;;;;;;;27.63;14.88;;;;;;;;;;4773373;30;20051;-86
2023/03/10 11:28:29;;;;;;;27.52;14.45;;;;;;;;;;4771975;30;20059;-89
2023/03/10 11:31:10;;;;;;;24.58;13.90;;;;;;;;;;4755720;30;20055;-89
2023/03/10 11:33:52;;;;;;;25.38;14.57;;;;;;;;;;4770193;30;20072;-89
2023/03/10 11:36:18;;;;;;;26.58;15.07;;;;;;;;;;4756206;30;20071;-89
2023/03/10 11:38:47;;;;;;;27.52;16.83;;;;;;;;;;4771672;30;20104;-88
2023/03/10 11:41:19;;;;;;;30.30;16.42;;;;;;;;;;4755716;30;20059;-88
2023/03/10 11:43:45;;;;;;;26.60;15.02;;;;;;;;;;4770270;30;20547;-88
2023/03/10 11:46:21;;;;;;;29.48;14.20;;;;;;;;;;4771415;30;20108;-87
2023/03/10 11:48:56;;;;;;;26.65;16.08;;;;;;;;;;4755814;30;20047;-88
2023/03/10 11:51:29;;;;;;;27.05;15.48;;;;;;;;;;4755510;30;20541;-87
2023/03/10 11:53:56;;;;;;;30.08;16.10;;;;;;;;;;4755638;30;20252;-89
2023/03/10 11:56:23;;;;;;;27.50;14.25;;;;;;;;;;4771027;30;20580;-85
2023/03/10 11:58:52;;;;;;;27.15;15.02;;;;;;;;;;4755534;30;20417;-86
2023/03/10 12:01:25;;;;;;;28.42;15.80;;;;;;;;;;4769967;30;20527;-86
2023/03/10 12:04:14;;;;;;;25.08;14.70;;;;;;;;;;4770799;30;20055;-86
2023/03/10 12:06:44;;;;;;;24.85;14.75;;;;;;;;;;4715965;30;20085;-87
2023/03/10 12:09:16;;;;;;;27.42;16.58;;;;;;;;;;4771002;30;20064;-86
2023/03/10 12:11:42;;;;;;;30.88;16.50;;;;;;;;;;4755046;30;20151;-85
2023/03/10 12:14:11;;;;;;;28.85;15.18;;;;;;;;;;4754912;30;20121;-86
2023/03/10 12:16:40;;;;;;;26.95;14.73;;;;;;;;;;4754924;30;20502;-86
2023/03/10 12:19:06;;;;;;;28.83;15.15;;;;;;;;;;4770392;30;20063;-85
2023/03/10 12:21:32;;;;;;;27.00;14.95;;;;;;;;;;4754542;30;20055;-86
2023/03/10 12:24:03;;;;;;;29.65;16.60;;;;;;;;;;4754797;30;20052;-86
2023/03/10 12:26:38;;;;;;;29.27;17.20;;;;;;;;;;4754600;30;20150;-87
2023/03/10 12:29:17;;;;;;;25.75;16.13;;;;;;;;;;4770613;30;20102;-86
2023/03/10 12:31:44;;;;;;;30.75;17.63;;;;;;;;;;4769554;30;20056;-87
2023/03/10 12:34:16;;;;;;;29.92;15.70;;;;;;;;;;4754497;30;20063;-87
2023/03/10 12:36:46;;;;;;;29.92;16.60;;;;;;;;;;4770473;30;20529;-87
2023/03/10 12:39:28;;;;;;;28.02;15.63;;;;;;;;;;4754566;30;20059;-86
2023/03/10 12:41:57;;;;;;;27.58;15.38;;;;;;;;;;4754733;30;20102;-87
2023/03/10 12:44:46;;;;;;;27.45;16.10;;;;;;;;;;4754399;30;20051;-86
2023/03/10 12:47:28;;;;;;;26.98;15.27;;;;;;;;;;4754634;30;20063;-87
2023/03/10 12:50:18;;;;;;;31.67;16.05;;;;;;;;;;4756327;30;20125;-87
2023/03/10 12:52:48;;;;;;;25.45;15.50;;;;;;;;;;4756812;30;20471;-87
2023/03/10 12:55:24;;;;;;;29.15;15.60;;;;;;;;;;4755684;30;20063;-88
2023/03/10 12:57:53;;;;;;;27.15;15.05;;;;;;;;;;4770874;30;20091;-88
2023/03/10 13:00:25;;;;;;;28.10;13.65;;;;;;;;;;4754521;30;20059;-88
2023/03/10 13:02:54;;;;;;;25.70;15.23;;;;;;;;;;4755274;30;20067;-87
2023/03/10 13:05:23;;;;;;;24.60;13.95;;;;;;;;;;4769400;30;20509;-87
2023/03/10 13:07:51;;;;;;;23.80;14.20;;;;;;;;;;4754781;30;20060;-87
2023/03/10 13:10:22;;;;;;;20.50;12.43;;;;;;;;;;4754959;30;20064;-87
2023/03/10 13:12:50;;;;;;;23.70;12.50;;;;;;;;;;4754854;30;20051;-87
2023/03/10 13:15:34;;;;;;;24.42;14.15;;;;;;;;;;4756086;30;20064;-87
2023/03/10 13:18:20;;;;;;;24.20;12.07;;;;;;;;;;4758259;30;20421;-89
2023/03/10 13:20:47;;;;;;;22.95;11.98;;;;;;;;;;4758947;30;20055;-88
2023/03/10 13:23:19;;;;;;;26.55;12.85;;;;;;;;;;4758464;30;20058;-88
2023/03/10 13:26:06;;;;;;;26.65;14.90;;;;;;;;;;4758447;30;20091;-89
2023/03/10 13:28:33;;;;;;;24.95;14.00;;;;;;;;;;4758120;30;20406;-88
2023/03/10 13:31:14;;;;;;;25.70;12.57;;;;;;;;;;4757479;30;20502;-88
2023/03/10 13:33:44;;;;;;;25.23;13.30;;;;;;;;;;4772435;30;20083;-87
2023/03/10 13:36:32;;;;;;;25.15;13.95;;;;;;;;;;4757165;30;20055;-86
2023/03/10 13:39:02;;;;;;;22.08;13.48;;;;;;;;;;4757294;30;20059;-86
2023/03/10 13:41:29;;;;;;;28.52;15.48;;;;;;;;;;4756899;30;20503;-87
2023/03/10 13:43:55;;;;;;;24.48;14.45;;;;;;;;;;4757421;30;20052;-87
2023/03/10 13:46:29;;;;;;;32.83;15.05;;;;;;;;;;4742647;30;20146;-87
2023/03/10 13:48:56;;;;;;;27.42;14.00;;;;;;;;;;4773389;30;20127;-86
2023/03/10 13:51:27;;;;;;;24.70;13.52;;;;;;;;;;4757060;30;20514;-86
2023/03/10 13:53:56;;;;;;;23.17;13.02;;;;;;;;;;4757081;30;20510;-88
2023/03/10 13:56:27;;;;;;;23.45;11.23;;;;;;;;;;4757246;30;20498;-89
2023/03/10 13:58:56;;;;;;;17.88;10.13;;;;;;;;;;4757644;30;20062;-87
2023/03/10 14:01:28;;;;;;;18.10;10.70;;;;;;;;;;4757394;30;20103;-87
2023/03/10 14:03:59;;;;;;;19.02;9.80;;;;;;;;;;4757119;30;20062;-89
2023/03/10 14:06:31;;;;;;;19.85;10.05;;;;;;;;;;4757735;30;20056;-90
2023/03/10 14:09:11;;;;;;;18.13;10.90;;;;;;;;;;4743665;30;20087;-90
2023/03/10 14:19:59;;;;;;;20.17;8.32;;;;;;;;;;1205965;28;20053;-87
2023/03/10 14:22:56;;;;;;;23.25;9.18;;;;;;;;;;4690082;30;20060;-87
2023/03/10 14:25:25;;;;;;;16.15;8.95;;;;;;;;;;4704070;30;20147;-88
2023/03/10 15:06:54;;;;;;;10.93;5.30;;;;;;;;;;4691407;27;20055;-88
2023/03/10 15:09:32;;;;;;;13.10;5.82;;;;;;;;;;4756727;30;20060;-87
2023/03/10 15:12:07;;;;;;;14.52;6.20;;;;;;;;;;4756427;30;20141;-88
2023/03/10 15:24:41;;;;;;;11.77;6.38;;;;;;;;;;4396869;28;20067;-89
2023/03/10 15:27:34;;;;;;;10.82;6.28;;;;;;;;;;4724288;30;20108;-89
2023/03/10 15:30:25;;;;;;;10.93;7.72;;;;;;;;;;4738143;30;20052;-89
2023/03/10 15:36:52;;;;;;;;;;;;;;;;;;;;;
2023/03/10 16:23:11;;;;;;;8.52;5.15;;;;;;;;;;5165054;24;20068;-89
2023/03/10 17:32:48;;;;;;;5.50;2.70;;;;;;;;;;4820658;24;20037;-87
2023/03/10 17:35:39;;;;;;;4.47;2.42;;;;;;;;;;4857532;24;20034;-88
2023/03/10 17:38:23;;;;;;;5.15;2.88;;;;;;;;;;4753139;30;20044;-87
2023/03/10 17:40:53;;;;;;;3.53;2.50;;;;;;;;;;4740803;30;20414;-88
2023/03/10 17:43:31;;;;;;;5.93;2.75;;;;;;;;;;4755350;30;20132;-88
2023/03/10 17:46:02;;;;;;;5.47;2.47;;;;;;;;;;4755987;30;20063;-87
2023/03/10 17:48:36;;;;;;;6.22;2.58;;;;;;;;;;4755040;30;20052;-88
2023/03/10 17:51:02;;;;;;;5.32;3.00;;;;;;;;;;4741027;30;20056;-87
2023/03/10 17:53:34;;;;;;;3.88;2.97;;;;;;;;;;4740038;30;20138;-87
2023/03/10 17:56:04;;;;;;;3.60;2.97;;;;;;;;;;4755026;30;20143;-87
2023/03/10 17:58:31;;;;;;;8.13;2.92;;;;;;;;;;4755057;30;20593;-85
2023/03/10 18:01:13;;;;;;;8.32;3.03;;;;;;;;;;4756555;30;20146;-87
2023/03/10 18:03:40;;;;;;;4.47;2.70;;;;;;;;;;4758143;30;20430;-87
2023/03/10 18:06:19;;;;;;;3.47;2.63;;;;;;;;;;4757896;30;20132;-87
2023/03/10 18:08:46;;;;;;;5.38;2.10;;;;;;;;;;4773700;30;20460;-87
2023/03/10 18:11:13;;;;;;;4.82;2.92;;;;;;;;;;4757725;30;20051;-87
2023/03/10 18:13:39;;;;;;;5.97;3.28;;;;;;;;;;4757726;30;20387;-86
2023/03/10 18:16:06;;;;;;;4.80;2.72;;;;;;;;;;4772450;30;20098;-86
2023/03/10 18:18:35;;;;;;;4.03;2.78;;;;;;;;;;4757435;30;20532;-87
2023/03/10 18:21:03;;;;;;;6.13;2.70;;;;;;;;;;4757469;30;20074;-87
2023/03/10 18:23:29;;;;;;;4.43;2.95;;;;;;;;;;4758057;30;20473;-86
2023/03/10 18:25:57;;;;;;;4.13;2.90;;;;;;;;;;4773311;30;20386;-86
2023/03/10 18:28:23;;;;;;;6.88;3.00;;;;;;;;;;4758985;30;20573;-87
2023/03/10 18:30:59;;;;;;;4.82;2.90;;;;;;;;;;4758403;30;20051;-87
2023/03/10 18:33:25;;;;;;;7.05;2.80;;;;;;;;;;4758653;30;20099;-88
2023/03/10 18:35:51;;;;;;;6.07;2.72;;;;;;;;;;4758146;30;20070;-85
2023/03/10 18:38:19;;;;;;;3.17;2.40;;;;;;;;;;4760322;30;20060;-86
2023/03/10 18:40:46;;;;;;;2.95;2.20;;;;;;;;;;4732614;30;20071;-85
2023/03/10 18:43:12;;;;;;;3.22;2.20;;;;;;;;;;4759628;30;20091;-86
2023/03/10 18:45:39;;;;;;;4.22;2.83;;;;;;;;;;4758810;30;20070;-85
2023/03/10 18:48:06;;;;;;;3.78;2.88;;;;;;;;;;4744620;30;20058;-85
2023/03/10 18:50:33;;;;;;;4.85;3.05;;;;;;;;;;4758209;30;20066;-86
2023/03/10 18:52:59;;;;;;;2.90;2.38;;;;;;;;;;4773177;30;20407;-85
2023/03/10 18:55:25;;;;;;;2.83;1.90;;;;;;;;;;4758568;30;20086;-85
2023/03/10 18:57:51;;;;;;;1.83;1.40;;;;;;;;;;4758469;30;20058;-85
2023/03/10 19:00:18;;;;;;;2.80;1.65;;;;;;;;;;4758397;30;20506;-86
2023/03/10 19:02:44;;;;;;;3.00;1.67;;;;;;;;;;4774500;30;20052;-85
2023/03/10 19:05:16;;;;;;;6.97;3.58;;;;;;;;;;4729215;30;20056;-85
2023/03/10 19:07:42;;;;;;;3.08;1.38;;;;;;;;;;4758196;30;20055;-85
2023/03/10 19:10:09;;;;;;;1.55;0.98;;;;;;;;;;4758522;30;20064;-84
2023/03/10 19:12:35;;;;;;;2.63;0.98;;;;;;;;;;4757759;30;20063;-85
2023/03/10 19:15:06;;;;;;;1.95;0.98;;;;;;;;;;4757969;30;20067;-85
2023/03/10 19:17:32;;;;;;;3.30;0.98;;;;;;;;;;4758065;30;20093;-85
2023/03/10 19:19:59;;;;;;;1.67;1.20;;;;;;;;;;4757288;30;20138;-85
2023/03/10 19:22:25;;;;;;;3.00;1.20;;;;;;;;;;4757475;30;20055;-84
2023/03/10 19:24:51;;;;;;;7.15;1.20;;;;;;;;;;4757677;30;20062;-84
2023/03/10 19:27:18;;;;;;;1.50;1.40;;;;;;;;;;4772933;30;20410;-84
2023/03/10 19:29:44;;;;;;;2.75;0.98;;;;;;;;;;4756974;30;20047;-84
2023/03/10 19:32:10;;;;;;;3.97;1.15;;;;;;;;;;4756696;30;20082;-84
2023/03/10 19:34:36;;;;;;;5.43;1.17;;;;;;;;;;4757063;30;20075;-84
2023/03/10 19:37:03;;;;;;;0.75;0.75;;;;;;;;;;4727085;30;20071;-85
2023/03/10 19:39:29;;;;;;;1.25;1.02;;;;;;;;;;4727445;30;20058;-84
2023/03/10 19:42:00;;;;;;;1.30;1.20;;;;;;;;;;4772256;30;20063;-84
2023/03/10 19:44:28;;;;;;;5.20;1.23;;;;;;;;;;4756469;30;20094;-85
2023/03/10 19:46:54;;;;;;;2.53;1.10;;;;;;;;;;4756552;30;20060;-85
2023/03/10 19:49:20;;;;;;;3.13;1.05;;;;;;;;;;4756390;30;20052;-84
2023/03/10 19:51:46;;;;;;;3.22;1.30;;;;;;;;;;4771276;30;20059;-84
2023/03/10 19:54:13;;;;;;;2.60;1.20;;;;;;;;;;4727212;30;20064;-84
2023/03/10 19:56:39;;;;;;;3.33;1.08;;;;;;;;;;4756461;30;20142;-85
2023/03/10 19:59:05;;;;;;;2.80;1.00;;;;;;;;;;4741771;30;20075;-84
2023/03/10 20:01:32;;;;;;;3.17;1.40;;;;;;;;;;4727021;30;20056;-84
2023/03/10 20:03:59;;;;;;;2.30;1.25;;;;;;;;;;4757877;30;20063;-85
2023/03/10 20:06:26;;;;;;;1.85;1.20;;;;;;;;;;4756963;30;20134;-85
2023/03/10 20:08:53;;;;;;;3.90;0.73;;;;;;;;;;4770869;30;20094;-85
2023/03/10 20:11:20;;;;;;;2.90;1.00;;;;;;;;;;4755442;30;20058;-85
2023/03/10 20:13:46;;;;;;;0.65;0.65;;;;;;;;;;4770136;30;20059;-85
2023/03/10 20:16:14;;;;;;;0.77;0.75;;;;;;;;;;4725779;30;20063;-84
2023/03/10 20:18:40;;;;;;;4.25;0.88;;;;;;;;;;4770093;30;20063;-85
2023/03/10 20:21:07;;;;;;;1.45;0.85;;;;;;;;;;4755185;30;20111;-85
2023/03/10 20:23:33;;;;;;;2.95;1.00;;;;;;;;;;4755029;30;20151;-85
2023/03/10 20:26:01;;;;;;;2.58;0.90;;;;;;;;;;4755043;30;20502;-84
2023/03/10 20:28:27;;;;;;;5.22;1.70;;;;;;;;;;4755438;30;20052;-85
2023/03/10 20:30:53;;;;;;;4.47;1.15;;;;;;;;;;4754900;30;20502;-86
2023/03/10 20:33:26;;;;;;;6.00;1.08;;;;;;;;;;4740081;30;20067;-85
2023/03/10 20:35:52;;;;;;;2.40;1.25;;;;;;;;;;4754958;30;20076;-85